createdAt,value
2022-10-13T00:00:05.170Z,10.60
2022-10-13T00:03:06.056Z,10.59
2022-10-13T00:05:44.599Z,10.56
2022-10-13T00:08:20.617Z,10.53
2022-10-13T00:10:54.751Z,10.50
2022-10-13T00:13:30.449Z,10.47
2022-10-13T00:16:06.138Z,10.45
2022-10-13T00:18:39.802Z,10.44
2022-10-13T00:21:15.340Z,10.41
2022-10-13T00:23:48.742Z,10.37
2022-10-13T00:26:27.796Z,10.32
2022-10-13T00:29:01.851Z,10.29
2022-10-13T00:31:35.669Z,10.27
2022-10-13T00:34:10.751Z,10.23
2022-10-13T00:36:43.966Z,10.18
2022-10-13T00:39:17.956Z,10.11
2022-10-13T00:41:51.235Z,10.04
2022-10-13T00:44:59.184Z,9.98
2022-10-13T00:47:36.814Z,9.95
2022-10-13T00:50:13.900Z,9.92
2022-10-13T00:52:49.187Z,9.89
2022-10-13T00:55:28.201Z,9.87
2022-10-13T00:58:05.401Z,9.83
2022-10-13T01:00:39.108Z,9.74
2022-10-13T01:03:13.410Z,9.68
2022-10-13T01:05:48.033Z,9.69
2022-10-13T01:08:21.834Z,9.71
2022-10-13T01:11:04.290Z,9.71
2022-10-13T01:13:42.954Z,9.72
2022-10-13T01:16:26.183Z,9.74
2022-10-13T01:19:10.227Z,9.74
2022-10-13T01:21:46.645Z,9.68
2022-10-13T01:24:39.804Z,9.60
2022-10-13T01:27:20.963Z,9.61
2022-10-13T01:30:09.884Z,9.57
2022-10-13T01:33:00.207Z,9.54
2022-10-13T01:35:53.856Z,9.53
2022-10-13T01:38:36.186Z,9.52
2022-10-13T01:41:17.803Z,9.53
2022-10-13T01:43:57.717Z,9.52
2022-10-13T01:46:35.557Z,9.51
2022-10-13T01:49:12.440Z,9.51
2022-10-13T01:51:48.513Z,9.46
2022-10-13T01:54:22.317Z,9.41
2022-10-13T01:57:00.294Z,9.37
2022-10-13T01:59:38.803Z,9.33
2022-10-13T02:02:19.562Z,9.34
2022-10-13T02:04:59.411Z,9.34
2022-10-13T02:07:40.905Z,9.35
2022-10-13T02:10:21.807Z,9.32
2022-10-13T02:13:00.981Z,9.29
2022-10-13T02:15:34.636Z,9.26
2022-10-13T02:18:13.672Z,9.21
2022-10-13T02:20:48.906Z,9.16
2022-10-13T02:23:23.167Z,9.11
2022-10-13T02:25:58.054Z,9.08
2022-10-13T02:28:31.989Z,9.03
2022-10-13T02:31:07.348Z,9.02
2022-10-13T02:33:41.071Z,9.01
2022-10-13T02:36:14.533Z,9.03
2022-10-13T02:38:48.135Z,9.05
2022-10-13T02:41:21.572Z,9.05
2022-10-13T02:43:54.949Z,9.02
2022-10-13T02:46:31.163Z,8.99
2022-10-13T02:49:04.864Z,8.93
2022-10-13T02:51:40.367Z,8.90
2022-10-13T02:54:14.292Z,8.90
2022-10-13T02:56:47.714Z,8.89
2022-10-13T02:59:21.350Z,8.90
2022-10-13T03:01:55.033Z,8.96
2022-10-13T03:04:30.226Z,8.98
2022-10-13T03:07:03.500Z,8.98
2022-10-13T03:09:37.269Z,8.96
2022-10-13T03:12:11.371Z,8.94
2022-10-13T03:14:44.651Z,8.89
2022-10-13T03:17:18.175Z,8.85
2022-10-13T03:19:51.967Z,8.81
2022-10-13T03:22:25.538Z,8.76
2022-10-13T03:24:59.372Z,8.73
2022-10-13T03:27:33.000Z,8.76
2022-10-13T03:30:06.907Z,8.74
2022-10-13T03:32:41.561Z,8.72
2022-10-13T03:35:14.996Z,8.67
2022-10-13T03:37:48.304Z,8.63
2022-10-13T03:40:21.596Z,8.62
2022-10-13T03:42:55.096Z,8.64
2022-10-13T03:45:28.738Z,8.66
2022-10-13T03:48:02.282Z,8.66
2022-10-13T03:50:35.787Z,8.68
2022-10-13T03:53:09.006Z,8.69
2022-10-13T03:55:44.542Z,8.65
2022-10-13T03:58:17.812Z,8.62
2022-10-13T04:00:52.546Z,8.60
2022-10-13T04:03:26.275Z,8.57
2022-10-13T04:06:03.672Z,8.54
2022-10-13T04:08:37.534Z,8.50
2022-10-13T04:11:12.848Z,8.49
2022-10-13T04:13:47.688Z,8.49
2022-10-13T04:16:22.347Z,8.51
2022-10-13T04:18:57.921Z,8.53
2022-10-13T04:21:33.669Z,8.53
2022-10-13T04:24:07.857Z,8.55
2022-10-13T04:26:41.420Z,8.58
2022-10-13T04:29:15.251Z,8.59
2022-10-13T04:31:48.788Z,8.58
2022-10-13T04:34:22.315Z,8.58
2022-10-13T04:36:56.158Z,8.59
2022-10-13T04:39:29.627Z,8.63
2022-10-13T04:42:03.600Z,8.63
2022-10-13T04:44:36.841Z,8.63
2022-10-13T04:47:12.145Z,8.66
2022-10-13T04:49:45.829Z,8.65
2022-10-13T04:52:19.555Z,8.61
2022-10-13T04:54:53.396Z,8.58
2022-10-13T04:57:26.916Z,8.59
2022-10-13T05:00:00.319Z,8.59
2022-10-13T05:02:38.309Z,8.57
2022-10-13T05:05:12.883Z,8.54
2022-10-13T05:07:46.363Z,8.55
2022-10-13T05:10:20.523Z,8.54
2022-10-13T05:12:55.218Z,8.51
2022-10-13T05:15:28.718Z,8.50
2022-10-13T05:18:02.202Z,8.50
2022-10-13T05:20:35.477Z,8.51
2022-10-13T05:23:08.933Z,8.54
2022-10-13T05:25:42.971Z,8.54
2022-10-13T05:28:19.513Z,8.57
2022-10-13T05:30:52.880Z,8.60
2022-10-13T05:33:26.384Z,8.64
2022-10-13T05:36:07.497Z,8.68
2022-10-13T05:38:44.148Z,8.73
2022-10-13T05:41:18.165Z,8.77
2022-10-13T05:43:53.306Z,8.79
2022-10-13T05:46:27.074Z,8.81
2022-10-13T05:49:00.275Z,8.84
2022-10-13T05:51:37.083Z,8.88
2022-10-13T05:54:15.605Z,8.95
2022-10-13T05:56:53.509Z,9.04
2022-10-13T05:59:29.026Z,9.14
2022-10-13T06:02:03.216Z,9.24
2022-10-13T06:04:40.310Z,9.33
2022-10-13T06:07:13.894Z,9.41
2022-10-13T06:09:48.064Z,9.52
2022-10-13T06:12:21.882Z,9.60
2022-10-13T06:14:56.140Z,9.68
2022-10-13T06:17:29.987Z,9.75
2022-10-13T06:20:04.612Z,10.09
2022-10-13T06:22:39.120Z,10.55
2022-10-13T06:25:13.545Z,10.81
2022-10-13T06:27:46.728Z,10.91
2022-10-13T06:30:20.378Z,10.95
2022-10-13T06:32:54.724Z,11.01
2022-10-13T06:35:28.278Z,11.24
2022-10-13T06:38:01.935Z,11.85
2022-10-13T06:40:35.584Z,12.04
2022-10-13T06:43:09.087Z,12.01
2022-10-13T06:45:47.781Z,11.96
2022-10-13T06:48:21.058Z,11.89
2022-10-13T06:50:54.477Z,11.86
2022-10-13T06:53:28.008Z,11.92
2022-10-13T06:56:02.922Z,11.94
2022-10-13T06:58:36.374Z,11.97
2022-10-13T07:01:09.860Z,12.02
2022-10-13T07:03:44.238Z,12.12
2022-10-13T07:06:17.957Z,12.19
2022-10-13T07:08:51.334Z,12.28
2022-10-13T07:11:26.443Z,12.37
2022-10-13T07:14:03.251Z,12.53
2022-10-13T07:16:36.949Z,12.64
2022-10-13T07:19:11.557Z,12.71
2022-10-13T07:21:46.986Z,12.70
2022-10-13T07:24:20.432Z,12.70
2022-10-13T07:26:53.693Z,12.70
2022-10-13T07:29:27.337Z,12.74
2022-10-13T07:32:01.145Z,12.86
2022-10-13T07:34:34.636Z,12.93
2022-10-13T07:37:08.664Z,12.94
2022-10-13T07:39:42.007Z,13.03
2022-10-13T07:42:15.359Z,13.31
2022-10-13T07:44:49.033Z,14.16
2022-10-13T07:47:22.676Z,14.66
2022-10-13T07:49:56.271Z,14.77
2022-10-13T07:52:29.901Z,14.79
2022-10-13T07:55:03.036Z,14.68
2022-10-13T07:57:36.578Z,14.50
2022-10-13T08:00:13.162Z,14.30
2022-10-13T08:02:50.766Z,14.26
2022-10-13T08:05:24.176Z,14.19
2022-10-13T08:07:58.577Z,14.15
2022-10-13T08:10:32.360Z,14.16
2022-10-13T08:13:06.021Z,14.17
2022-10-13T08:15:43.216Z,14.15
2022-10-13T08:18:17.062Z,14.26
2022-10-13T08:20:50.428Z,14.41
2022-10-13T08:23:24.492Z,14.50
2022-10-13T08:25:58.047Z,14.67
2022-10-13T08:28:31.948Z,14.85
2022-10-13T08:31:06.235Z,15.03
2022-10-13T08:33:41.297Z,15.32
2022-10-13T08:36:17.059Z,15.95
2022-10-13T08:38:50.774Z,17.47
2022-10-13T08:41:27.954Z,18.19
2022-10-13T08:44:56.727Z,18.10
2022-10-13T08:47:14.767Z,17.65
2022-10-13T08:49:48.437Z,17.31
2022-10-13T08:52:25.030Z,17.04
2022-10-13T08:54:59.341Z,17.12
2022-10-13T08:57:33.222Z,17.35
2022-10-13T09:00:08.525Z,17.38
2022-10-13T09:02:44.845Z,17.22
2022-10-13T09:05:26.975Z,17.12
2022-10-13T09:08:04.258Z,17.17
2022-10-13T09:10:47.646Z,17.07
2022-10-13T09:13:24.355Z,16.85
2022-10-13T09:15:59.567Z,16.66
2022-10-13T09:18:35.013Z,16.52
2022-10-13T09:21:22.703Z,16.41
2022-10-13T09:24:07.631Z,16.26
2022-10-13T09:26:42.388Z,16.07
2022-10-13T09:29:21.261Z,15.96
2022-10-13T09:31:55.976Z,15.94
2022-10-13T09:34:30.604Z,16.07
2022-10-13T09:37:06.767Z,16.29
2022-10-13T09:39:40.211Z,16.56
2022-10-13T09:42:23.405Z,16.52
2022-10-13T09:45:14.036Z,16.36
2022-10-13T09:47:54.907Z,16.29
2022-10-13T09:50:29.969Z,16.19
2022-10-13T09:53:23.501Z,16.13
2022-10-13T09:56:12.363Z,16.16
2022-10-13T09:58:50.592Z,16.21
2022-10-13T10:01:29.704Z,16.17
2022-10-13T10:04:05.867Z,16.14
2022-10-13T10:06:41.910Z,16.12
2022-10-13T10:09:33.453Z,16.13
2022-10-13T10:12:08.022Z,16.12
2022-10-13T10:14:41.763Z,16.15
2022-10-13T10:17:23.391Z,16.16
2022-10-13T10:20:12.275Z,16.18
2022-10-13T10:22:48.401Z,16.24
2022-10-13T10:25:33.624Z,16.26
2022-10-13T10:28:26.021Z,16.26
2022-10-13T10:31:08.611Z,16.51
2022-10-13T10:33:51.474Z,16.68
2022-10-13T10:36:33.351Z,16.82
2022-10-13T10:39:20.059Z,17.11
2022-10-13T10:42:05.225Z,17.35
2022-10-13T10:44:43.300Z,17.53
2022-10-13T10:47:23.511Z,17.79
2022-10-13T10:50:06.707Z,18.17
2022-10-13T10:52:51.276Z,18.71
2022-10-13T10:55:29.581Z,19.91
2022-10-13T10:58:14.984Z,20.39
2022-10-13T11:00:58.107Z,20.68
2022-10-13T11:03:42.484Z,20.79
2022-10-13T11:06:34.516Z,20.77
2022-10-13T11:09:13.145Z,20.71
2022-10-13T11:11:44.667Z,20.66
2022-10-13T11:14:40.780Z,20.84
2022-10-13T11:17:31.396Z,21.39
2022-10-13T11:20:25.941Z,22.34
2022-10-13T11:23:26.383Z,23.42
2022-10-13T11:26:31.433Z,23.67
2022-10-13T11:29:04.550Z,23.40
2022-10-13T11:31:53.009Z,23.45
2022-10-13T11:34:34.038Z,23.49
2022-10-13T11:37:18.136Z,22.79
2022-10-13T11:40:17.256Z,22.19
2022-10-13T11:43:27.696Z,21.36
2022-10-13T11:46:25.260Z,20.61
2022-10-13T11:49:17.736Z,20.37
2022-10-13T11:52:08.473Z,20.57
2022-10-13T11:54:50.420Z,20.51
2022-10-13T11:57:26.524Z,20.37
2022-10-13T12:00:00.297Z,19.86
2022-10-13T12:02:35.932Z,19.47
2022-10-13T12:05:21.669Z,19.36
2022-10-13T12:07:57.175Z,19.64
2022-10-13T12:10:34.297Z,20.49
2022-10-13T12:13:09.117Z,20.93
2022-10-13T12:15:45.712Z,21.24
2022-10-13T12:18:28.711Z,21.37
2022-10-13T12:21:04.195Z,21.19
2022-10-13T12:23:37.860Z,21.53
2022-10-13T12:26:15.692Z,22.23
2022-10-13T12:28:54.560Z,22.62
2022-10-13T12:31:31.332Z,22.63
2022-10-13T12:34:05.824Z,23.08
2022-10-13T12:36:39.673Z,23.42
2022-10-13T12:39:16.815Z,23.54
2022-10-13T12:41:51.302Z,23.42
2022-10-13T12:44:27.618Z,22.87
2022-10-13T12:47:04.056Z,22.21
2022-10-13T12:49:39.659Z,21.73
2022-10-13T12:52:18.012Z,21.35
2022-10-13T12:54:55.412Z,21.01
2022-10-13T12:57:38.000Z,20.81
2022-10-13T13:00:25.465Z,20.62
2022-10-13T13:03:00.358Z,20.39
2022-10-13T13:05:36.270Z,20.20
2022-10-13T13:08:26.455Z,20.27
2022-10-13T13:11:00.585Z,20.23
2022-10-13T13:13:34.732Z,20.05
2022-10-13T13:16:23.585Z,20.14
2022-10-13T13:18:56.733Z,20.32
2022-10-13T13:21:30.833Z,20.37
2022-10-13T13:24:07.474Z,20.09
2022-10-13T13:26:50.797Z,19.78
2022-10-13T13:29:24.642Z,19.56
2022-10-13T13:31:57.585Z,19.41
2022-10-13T13:34:30.725Z,19.33
2022-10-13T13:37:04.424Z,19.29
2022-10-13T13:39:37.562Z,19.19
2022-10-13T13:42:15.319Z,18.99
2022-10-13T13:44:49.663Z,18.74
2022-10-13T13:47:24.911Z,18.55
2022-10-13T13:49:58.682Z,18.40
2022-10-13T13:52:31.513Z,18.25
2022-10-13T13:55:04.513Z,18.24
2022-10-13T13:57:37.728Z,18.32
2022-10-13T14:00:14.354Z,18.26
2022-10-13T14:02:48.499Z,18.15
2022-10-13T14:05:21.947Z,18.05
2022-10-13T14:07:58.213Z,17.88
2022-10-13T14:10:31.429Z,17.74
2022-10-13T14:13:04.827Z,17.64
2022-10-13T14:15:37.995Z,17.55
2022-10-13T14:18:11.206Z,17.44
2022-10-13T14:20:45.397Z,17.35
2022-10-13T14:23:18.972Z,17.27
2022-10-13T14:25:52.440Z,17.14
2022-10-13T14:28:27.065Z,17.10
2022-10-13T14:31:00.397Z,17.07
2022-10-13T14:33:34.576Z,16.97
2022-10-13T14:36:09.786Z,16.99
2022-10-13T14:38:43.151Z,16.98
2022-10-13T14:41:17.512Z,16.92
2022-10-13T14:43:56.012Z,16.88
2022-10-13T14:46:29.180Z,16.82
2022-10-13T14:49:02.457Z,16.71
2022-10-13T14:51:35.970Z,16.57
2022-10-13T14:54:10.034Z,16.47
2022-10-13T14:56:45.288Z,16.42
2022-10-13T14:59:19.636Z,16.38
2022-10-13T15:01:53.077Z,16.36
2022-10-13T15:04:26.869Z,16.34
2022-10-13T15:07:00.122Z,16.28
2022-10-13T15:09:52.289Z,16.23
2022-10-13T15:12:27.265Z,16.11
2022-10-13T15:15:00.572Z,16.04
2022-10-13T15:17:34.995Z,16.00
2022-10-13T15:20:10.186Z,15.94
2022-10-13T15:22:43.181Z,15.84
2022-10-13T15:25:17.924Z,15.74
2022-10-13T15:27:51.001Z,15.66
2022-10-13T15:30:24.614Z,15.62
2022-10-13T15:32:57.902Z,15.59
2022-10-13T15:35:34.262Z,15.52
2022-10-13T15:38:10.662Z,15.45
2022-10-13T15:40:44.119Z,15.40
2022-10-13T15:43:17.921Z,15.37
2022-10-13T15:45:58.922Z,15.33
2022-10-13T15:48:32.901Z,15.32
2022-10-13T15:51:15.017Z,15.29
2022-10-13T15:53:49.096Z,15.24
2022-10-13T15:56:22.563Z,15.13
2022-10-13T15:58:55.955Z,15.06
2022-10-13T16:01:29.728Z,15.01
2022-10-13T16:04:03.502Z,14.96
2022-10-13T16:06:37.996Z,14.93
2022-10-13T16:09:10.866Z,14.90
2022-10-13T16:11:43.854Z,14.87
2022-10-13T16:14:16.847Z,14.84
2022-10-13T16:16:49.774Z,14.81
2022-10-13T16:19:23.206Z,14.78
2022-10-13T16:21:56.678Z,14.75
2022-10-13T16:24:30.075Z,14.70
2022-10-13T16:27:03.265Z,14.65
2022-10-13T16:29:39.242Z,14.60
2022-10-13T16:32:12.715Z,14.56
2022-10-13T16:34:48.140Z,14.53
2022-10-13T16:37:25.653Z,14.47
2022-10-13T16:39:59.331Z,14.44
2022-10-13T16:42:32.730Z,14.39
2022-10-13T16:45:07.032Z,14.35
2022-10-13T16:47:40.571Z,14.30
2022-10-13T16:50:14.106Z,14.24
2022-10-13T16:52:48.390Z,14.17
2022-10-13T16:55:21.391Z,14.10
2022-10-13T16:57:54.606Z,14.07
2022-10-13T17:00:27.976Z,14.05
2022-10-13T17:03:01.865Z,14.03
2022-10-13T17:05:35.477Z,14.00
2022-10-13T17:08:09.900Z,13.95
2022-10-13T17:10:43.327Z,13.91
2022-10-13T17:13:16.826Z,13.87
2022-10-13T17:15:54.880Z,13.83
2022-10-13T17:18:29.636Z,13.80
2022-10-13T17:21:05.217Z,13.76
2022-10-13T17:23:43.505Z,13.73
2022-10-13T17:26:21.544Z,13.69
2022-10-13T17:28:55.856Z,13.65
2022-10-13T17:31:33.212Z,13.63
2022-10-13T17:34:09.619Z,13.58
2022-10-13T17:36:44.002Z,13.52
2022-10-13T17:39:18.979Z,13.46
2022-10-13T17:41:52.817Z,13.40
2022-10-13T17:44:27.814Z,13.36
2022-10-13T17:47:02.669Z,13.35
2022-10-13T17:49:36.524Z,13.34
2022-10-13T17:52:11.115Z,13.32
2022-10-13T17:54:46.376Z,13.32
2022-10-13T17:57:25.741Z,13.32
2022-10-13T18:00:01.218Z,13.31
2022-10-13T18:02:36.345Z,13.29
2022-10-13T18:05:11.093Z,13.27
2022-10-13T18:07:47.370Z,13.25
2022-10-13T18:10:22.879Z,13.20
2022-10-13T18:12:59.069Z,13.19
2022-10-13T18:15:42.665Z,13.17
2022-10-13T18:18:16.753Z,13.13
2022-10-13T18:20:50.932Z,13.05
2022-10-13T18:23:24.851Z,12.98
2022-10-13T18:26:04.062Z,12.93
2022-10-13T18:28:41.110Z,12.88
2022-10-13T18:31:18.457Z,12.86
2022-10-13T18:33:52.675Z,12.85
2022-10-13T18:36:29.819Z,12.82
2022-10-13T18:39:08.146Z,12.75
2022-10-13T18:41:42.532Z,12.73
2022-10-13T18:44:16.785Z,12.69
2022-10-13T18:46:52.984Z,12.63
2022-10-13T18:49:31.677Z,12.57
2022-10-13T18:52:06.170Z,12.54
2022-10-13T18:54:46.325Z,12.52
2022-10-13T18:57:21.057Z,12.47
2022-10-13T18:59:55.853Z,12.40
2022-10-13T19:02:36.694Z,12.36
2022-10-13T19:05:11.972Z,12.35
2022-10-13T19:07:46.113Z,12.34
2022-10-13T19:10:21.098Z,12.35
2022-10-13T19:12:55.856Z,12.34
2022-10-13T19:15:30.858Z,12.35
2022-10-13T19:18:06.831Z,12.34
2022-10-13T19:20:41.179Z,12.31
2022-10-13T19:23:18.778Z,12.31
2022-10-13T19:25:53.289Z,12.30
2022-10-13T19:28:28.056Z,12.28
2022-10-13T19:31:13.784Z,12.26
2022-10-13T19:33:50.542Z,12.24
2022-10-13T19:36:28.307Z,12.20
2022-10-13T19:39:04.726Z,12.17
2022-10-13T19:41:39.895Z,12.13
2022-10-13T19:44:14.337Z,12.09
2022-10-13T19:46:49.949Z,12.08
2022-10-13T19:49:28.291Z,12.05
2022-10-13T19:52:02.984Z,12.02
2022-10-13T19:54:38.051Z,11.99
2022-10-13T19:57:13.258Z,11.95
2022-10-13T19:59:48.297Z,11.92
2022-10-13T20:02:22.738Z,11.89
2022-10-13T20:04:56.492Z,11.86
2022-10-13T20:07:31.273Z,11.82
2022-10-13T20:10:12.992Z,11.78
2022-10-13T20:12:46.251Z,11.73
2022-10-13T20:15:19.625Z,11.69
2022-10-13T20:17:53.465Z,11.66
2022-10-13T20:20:28.392Z,11.62
2022-10-13T20:23:05.132Z,11.60
2022-10-13T20:25:40.888Z,11.56
2022-10-13T20:28:17.475Z,11.51
2022-10-13T20:30:50.806Z,11.46
2022-10-13T20:33:24.629Z,11.41
2022-10-13T20:36:01.714Z,11.38
2022-10-13T20:38:36.592Z,11.36
2022-10-13T20:41:12.058Z,11.35
2022-10-13T20:43:45.918Z,11.33
2022-10-13T20:46:22.061Z,11.30
2022-10-13T20:49:13.066Z,11.30
2022-10-13T20:51:47.137Z,11.31
2022-10-13T20:54:20.333Z,11.32
2022-10-13T20:56:54.931Z,11.33
2022-10-13T20:59:28.377Z,11.32
2022-10-13T21:02:01.643Z,11.27
2022-10-13T21:04:35.068Z,11.21
2022-10-13T21:07:08.192Z,11.16
2022-10-13T21:09:41.786Z,11.12
2022-10-13T21:12:15.486Z,11.06
2022-10-13T21:14:48.675Z,10.99
2022-10-13T21:17:22.629Z,10.90
2022-10-13T21:19:58.560Z,10.84
2022-10-13T21:22:32.151Z,10.81
2022-10-13T21:25:06.650Z,10.78
2022-10-13T21:27:40.298Z,10.72
2022-10-13T21:30:15.459Z,10.68
2022-10-13T21:32:48.755Z,10.68
2022-10-13T21:35:22.150Z,10.67
2022-10-13T21:37:55.473Z,10.62
2022-10-13T21:40:28.623Z,10.64
2022-10-13T21:43:02.987Z,10.64
2022-10-13T21:45:38.235Z,10.60
2022-10-13T21:48:12.442Z,10.59
2022-10-13T21:50:46.153Z,10.61
2022-10-13T21:53:19.882Z,10.61
2022-10-13T21:55:53.552Z,10.58
2022-10-13T21:58:26.913Z,10.56
2022-10-13T22:01:04.694Z,10.55
2022-10-13T22:03:38.302Z,10.53
2022-10-13T22:06:18.478Z,10.48
2022-10-13T22:08:54.897Z,10.44
2022-10-13T22:11:30.783Z,10.41
2022-10-13T22:14:04.983Z,10.36
2022-10-13T22:16:40.862Z,10.35
2022-10-13T22:19:15.058Z,10.35
2022-10-13T22:21:50.454Z,10.34
2022-10-13T22:24:24.944Z,10.35
2022-10-13T22:26:58.355Z,10.36
2022-10-13T22:29:31.417Z,10.34
2022-10-13T22:32:04.848Z,10.30
2022-10-13T22:34:38.407Z,10.29
2022-10-13T22:37:11.772Z,10.25
2022-10-13T22:39:45.333Z,10.20
2022-10-13T22:42:18.624Z,10.20
2022-10-13T22:44:51.787Z,10.18
2022-10-13T22:47:26.917Z,10.20
2022-10-13T22:50:00.236Z,10.18
2022-10-13T22:52:33.463Z,10.17
2022-10-13T22:55:07.239Z,10.18
2022-10-13T22:57:41.574Z,10.15
2022-10-13T23:00:17.250Z,10.13
2022-10-13T23:02:53.199Z,10.13
2022-10-13T23:05:26.424Z,10.12
2022-10-13T23:07:59.905Z,10.09
2022-10-13T23:10:33.335Z,10.09
2022-10-13T23:13:07.388Z,10.10
2022-10-13T23:15:42.357Z,10.06
2022-10-13T23:18:17.096Z,10.02
2022-10-13T23:20:54.419Z,10.00
2022-10-13T23:23:32.295Z,10.01
2022-10-13T23:26:11.573Z,10.03
2022-10-13T23:28:46.483Z,9.95
2022-10-13T23:31:20.933Z,9.92
2022-10-13T23:33:55.504Z,9.89
2022-10-13T23:36:31.260Z,9.85
2022-10-13T23:39:06.654Z,9.80
2022-10-13T23:41:43.870Z,9.79
2022-10-13T23:44:17.322Z,9.79
2022-10-13T23:46:51.051Z,9.80
2022-10-13T23:49:25.082Z,9.83
2022-10-13T23:51:58.239Z,9.84
2022-10-13T23:54:32.933Z,9.81
2022-10-13T23:57:06.050Z,9.78
2022-10-13T23:59:39.713Z,9.77
